Details From NTAA - Faaa
To SCIP - Mataveri Intl
Flight Number -
Tags Decoded
Created
Modified
Stats Distance 2,295 nm / 4,249 km
Max Altitude 0 ft / 0 m
Waypoints 2
Social Downloads 4
Likes 0
Share VATSIM

Download

Looking for another format? Having issues loading an existing format? Contact us
Advertisement - Login to hide

Notes

Decoded

Route

NTAA SCIP

ID Type Via Altitude Latitude Longitude Leg Dist Tot Dist Heading (true) Name
O NTAA APT - 0 ft / 0 m -17.56288˚ -149.62043˚ - 0 nm - -
O SCIP APT - 0 ft / 0 m -27.15796˚ -109.43667˚ 2294 nm 2294 nm 112° / 96° -

Altitude Profile

Advertisement - Login to hide

Weather


0- 5 10 15 20 25 30 35+ Temperature / ° C

Clouds and Precipitation
Forecast for 2017-12-12 00:00 UTC. Updated 2 hours ago

Ground ~20,000 ft ~40,000 ft Winds

NTAA

Details ICAO NTAA (PPT)
Name Faaa
Region French Polynesia
Timezone Pacific/Tahiti (UTC-10.0)
Stats Elevation 5 ft / 2 m (AMSL)
Location -17.553765° -149.607255°
Runways 1
Magnetic Variation 12.875° E

METAR

NTAA 120038Z 02008KT 9999 VCSH FEW025 BKN280 31/23 Q1010 NOSIG

Decode

TAF

TAF NTAA 112300Z 1200/1306 05015KT 9999 FEW025 BECMG 1203/1205 VRB05KT

Decode

Departure Runways

ID Width Length Bearing (true) Bearing (mag) Surface Threshold Offset Overrun Length
04 148 ft / 45 m 11,323 ft / 3,451 m 54.04° 41.16° Asphalt 1,099 ft / 335 m 0 ft / 0 m
22 148 ft / 45 m 11,323 ft / 3,451 m 234.03° 221.15° Asphalt 479 ft / 146 m 0 ft / 0 m

SCIP

Details ICAO SCIP (IPC)
Name Mataveri Intl
Region Chile
Timezone Pacific/Easter (UTC-5.0)
Stats Elevation 227 ft / 69 m (AMSL)
Location -27.164790° -109.421829°
Runways 1
Magnetic Variation 15.104° E

METAR

SCIP 120000Z VRB03KT 9999 SCT040 23/17 Q1020 NOSIG

Decode

TAF

TAF SCIP 112228Z 1200/1300 34008KT 9999 SCT020 SCT250 TN17/1210Z TX25 /1220Z BECMG 1202/1204 36004KT SCT020 TEMPO 1208/1213 11003KT 7000 -SHRA BKN020 SCT060 BECMG 1214/1216 36010KT SCT020 BKN200 TEMPO 1220/1224 7000 -SHRA BKN016 SCT050

Decode

Destination Runways

ID Width Length Bearing (true) Bearing (mag) Surface Threshold Offset Overrun Length
10 145 ft / 44 m 10,848 ft / 3,306 m 117.35° 102.25° Asphalt 0 ft / 0 m 355 ft / 108 m
28 145 ft / 44 m 10,848 ft / 3,306 m 297.33° 282.23° Asphalt 0 ft / 0 m 95 ft / 29 m

Approach Navaids

Runway Type Ident Frequency Range Bearing (true) Bearing (mag) Slope Elevation
10 Localiser IIPA 110.30 MHz 18 nm / 33 km 119.21° 104.11° - 127 ft / 39 m (AMSL)
10 Glidescope IIPA 110.30 MHz 10 nm / 19 km 117.34° 102.24° 2.50° 148 ft / 45 m (AMSL)

Popular Alternatives